Time;durP1;ratioP1;P1;durP2;ratioP2;P2;SDS_P1;SDS_P2;PMS_P1;PMS_P2;Temp;Humidity;BMP_temperature;BMP_pressure;BME280_temperature;BME280_humidity;BME280_pressure;Samples;Min_cycle;Max_cycle;Signal;HPM_P1;HPM_P2
2023/04/05 00:00:12;;;;;;;10.07;6.10;;;;;;;0.26;57.10;96015.19;6065662;23;20223;-86
2023/04/05 00:02:39;;;;;;;7.33;6.03;;;;;;;0.21;57.10;96017.16;6067971;23;20158;-85
2023/04/05 00:05:05;;;;;;;6.57;5.87;;;;;;;0.27;57.07;96007.47;6066041;23;20160;-85
2023/04/05 00:07:33;;;;;;;7.37;5.73;;;;;;;0.32;56.73;96011.50;6067406;23;20197;-85
2023/04/05 00:09:58;;;;;;;8.20;6.00;;;;;;;0.26;56.81;96008.34;6068793;23;20209;-85
2023/04/05 00:12:23;;;;;;;8.00;5.37;;;;;;;0.35;56.63;96003.69;6068125;23;20172;-85
2023/04/05 00:14:49;;;;;;;8.57;5.87;;;;;;;0.34;56.34;96002.03;6067270;23;20164;-84
2023/04/05 00:17:14;;;;;;;8.97;5.70;;;;;;;0.28;56.61;96001.44;6068932;23;20496;-84
2023/04/05 00:19:41;;;;;;;7.80;5.80;;;;;;;0.33;56.39;95993.56;6068754;23;20177;-85
2023/04/05 00:22:09;;;;;;;7.27;5.83;;;;;;;0.33;56.80;95985.88;6068766;23;20153;-83
2023/04/05 00:24:37;;;;;;;9.53;5.80;;;;;;;0.36;56.48;95985.75;6068970;23;20160;-85
2023/04/05 00:27:03;;;;;;;9.40;5.87;;;;;;;0.33;56.45;95982.50;6070274;23;20268;-86
2023/04/05 00:29:28;;;;;;;8.13;5.70;;;;;;;0.34;56.60;95977.31;6069547;23;20524;-84
2023/04/05 00:31:54;;;;;;;6.40;5.20;;;;;;;0.33;56.32;95975.66;6070818;23;20168;-85
2023/04/05 00:34:20;;;;;;;8.40;5.53;;;;;;;0.31;56.75;95982.59;6070753;23;20168;-85
2023/04/05 00:36:45;;;;;;;6.77;5.40;;;;;;;0.37;56.31;95971.25;6094226;23;20161;-84
2023/04/05 00:39:10;;;;;;;9.83;6.37;;;;;;;0.29;56.66;95974.19;6069860;23;20221;-85
2023/04/05 00:41:35;;;;;;;7.00;5.47;;;;;;;0.32;56.16;95963.81;6071600;23;20161;-85
2023/04/05 00:44:02;;;;;;;8.07;6.10;;;;;;;0.31;56.70;95969.00;6069644;23;20678;-84
2023/04/05 00:46:28;;;;;;;6.60;5.23;;;;;;;0.34;56.82;95963.72;6070256;23;20677;-85
2023/04/05 00:48:53;;;;;;;7.20;5.60;;;;;;;0.31;56.92;95963.88;6070595;23;20196;-84
2023/04/05 00:51:19;;;;;;;8.93;5.90;;;;;;;0.32;56.55;95963.81;6047704;23;20588;-85
2023/04/05 00:53:46;;;;;;;7.70;5.57;;;;;;;0.34;56.38;95958.59;6046908;23;20157;-85
2023/04/05 00:56:12;;;;;;;6.47;5.03;;;;;;;0.32;56.60;95966.34;6022930;23;20547;-84
2023/04/05 00:58:40;;;;;;;7.23;5.53;;;;;;;0.28;56.67;95955.47;6045362;23;20186;-84
2023/04/05 01:01:21;;;;;;;7.63;5.37;;;;;;;0.32;56.57;95962.97;6045942;23;20611;-85
2023/04/05 01:03:52;;;;;;;6.90;5.00;;;;;;;0.29;56.53;95956.31;6069024;23;20227;-85
2023/04/05 01:06:50;;;;;;;8.67;5.63;;;;;;;0.24;57.15;95953.13;6044955;23;20652;-85
2023/04/05 01:09:24;;;;;;;8.60;5.90;;;;;;;0.21;56.98;95949.00;6072208;23;20642;-85
2023/04/05 01:11:52;;;;;;;7.97;5.80;;;;;;;0.08;57.16;95945.38;6022046;23;20155;-85
2023/04/05 01:14:17;;;;;;;10.13;5.77;;;;;;;0.15;57.16;95944.19;6044906;23;20168;-85
2023/04/05 01:16:42;;;;;;;8.00;6.00;;;;;;;0.10;57.58;95937.66;6068104;23;20171;-84
2023/04/05 01:19:08;;;;;;;9.23;5.83;;;;;;;0.12;57.81;95941.78;6046674;23;20191;-85
2023/04/05 01:21:36;;;;;;;7.93;5.70;;;;;;;0.11;57.77;95935.03;6047262;23;20157;-85
2023/04/05 01:24:19;;;;;;;8.77;6.13;;;;;;;0.08;57.74;95937.72;6047872;23;20180;-84
2023/04/05 01:26:47;;;;;;;7.43;5.60;;;;;;;0.10;57.91;95938.50;6044209;23;20180;-84
2023/04/05 01:29:37;;;;;;;10.70;6.10;;;;;;;0.06;58.24;95931.03;6044100;23;20655;-84
2023/04/05 01:32:26;;;;;;;8.30;6.07;;;;;;;0.04;58.57;95931.13;6044549;23;20177;-84
2023/04/05 01:34:56;;;;;;;9.80;5.80;;;;;;;-0.03;58.49;95928.03;6049095;23;20161;-85
2023/04/05 01:37:26;;;;;;;8.63;6.20;;;;;;;-0.04;58.66;95926.38;6045184;23;20173;-85
2023/04/05 01:39:51;;;;;;;10.40;5.77;;;;;;;-0.08;58.44;95924.06;6044859;23;20185;-84
2023/04/05 01:42:24;;;;;;;7.33;5.30;;;;;;;-0.10;58.83;95916.47;6045455;23;20171;-85
2023/04/05 01:44:49;;;;;;;11.00;5.87;;;;;;;-0.10;58.83;95915.63;6044069;23;20149;-84
2023/04/05 01:47:15;;;;;;;8.10;5.30;;;;;;;-0.15;58.53;95915.03;6044303;23;20263;-83
2023/04/05 01:49:40;;;;;;;8.60;5.10;;;;;;;-0.17;58.98;95924.50;6050125;23;20529;-83
2023/04/05 01:52:05;;;;;;;8.17;5.57;;;;;;;-0.18;59.05;95918.56;6068232;23;20156;-85
2023/04/05 01:54:30;;;;;;;8.37;5.53;;;;;;;-0.14;59.11;95914.16;6067647;23;20168;-85
2023/04/05 01:56:56;;;;;;;6.93;5.33;;;;;;;-0.18;59.01;95920.28;6066653;23;20175;-85
2023/04/05 01:59:21;;;;;;;8.13;5.67;;;;;;;-0.20;58.90;95906.78;6069938;23;20654;-85
2023/04/05 02:01:46;;;;;;;6.50;5.13;;;;;;;-0.22;59.17;95909.41;6070425;23;20168;-84
2023/04/05 02:04:12;;;;;;;8.20;5.97;;;;;;;-0.28;59.50;95913.06;6068793;23;20164;-86
2023/04/05 02:06:37;;;;;;;6.80;5.53;;;;;;;-0.32;59.43;95915.84;6091798;23;20177;-84
2023/04/05 02:09:02;;;;;;;9.47;6.27;;;;;;;-0.36;59.51;95912.59;6068139;23;20248;-86
2023/04/05 02:11:28;;;;;;;8.20;6.00;;;;;;;-0.46;59.67;95902.91;6067831;23;20537;-83
2023/04/05 02:13:53;;;;;;;6.60;5.40;;;;;;;-0.42;59.90;95909.53;6069710;23;20506;-84
2023/04/05 02:16:18;;;;;;;9.33;6.37;;;;;;;-0.52;60.16;95903.22;6068004;23;20161;-82
2023/04/05 02:18:49;;;;;;;8.37;6.07;;;;;;;-0.57;60.43;95904.25;6067763;23;20192;-84
2023/04/05 02:21:15;;;;;;;7.53;6.03;;;;;;;-0.63;60.60;95904.50;6069214;23;20164;-83
2023/04/05 02:23:40;;;;;;;9.57;6.00;;;;;;;-0.63;60.96;95904.50;6043272;23;20164;-82
2023/04/05 02:26:06;;;;;;;6.13;5.47;;;;;;;-0.69;61.17;95899.72;6068132;23;20172;-84
2023/04/05 02:28:31;;;;;;;7.03;5.57;;;;;;;-0.72;61.06;95902.38;6067663;23;20194;-83
2023/04/05 02:30:56;;;;;;;8.47;5.70;;;;;;;-0.76;61.34;95900.06;6067062;23;20169;-82
2023/04/05 02:33:22;;;;;;;8.00;5.67;;;;;;;-0.80;61.88;95896.00;6067007;23;20158;-85
2023/04/05 02:35:48;;;;;;;9.93;5.83;;;;;;;-0.80;62.00;95893.44;6067353;23;20157;-85
2023/04/05 02:38:13;;;;;;;6.87;6.17;;;;;;;-0.82;62.20;95905.44;6092039;23;20169;-85
2023/04/05 02:40:40;;;;;;;8.27;6.07;;;;;;;-0.86;61.90;95897.94;6067038;23;20516;-84
2023/04/05 02:43:06;;;;;;;11.00;5.33;;;;;;;-0.87;62.43;95903.94;6068340;23;20665;-85
2023/04/05 02:45:31;;;;;;;10.23;6.40;;;;;;;-0.93;62.59;95899.09;6066790;23;20247;-85
2023/04/05 02:47:57;;;;;;;8.10;6.33;;;;;;;-0.93;62.79;95899.09;6068102;23;20502;-84
2023/04/05 02:50:22;;;;;;;8.00;5.80;;;;;;;-0.97;62.45;95897.59;6066620;23;20541;-85
2023/04/05 02:52:47;;;;;;;6.67;5.90;;;;;;;-0.94;62.91;95899.19;6067962;23;20157;-84
2023/04/05 02:55:13;;;;;;;9.67;6.30;;;;;;;-0.92;63.07;95897.38;6066929;23;20189;-84
2023/04/05 02:57:38;;;;;;;9.03;6.27;;;;;;;-0.99;62.91;95896.81;6091384;23;20481;-84
2023/04/05 03:00:04;;;;;;;8.93;6.13;;;;;;;-0.92;62.72;95889.72;6067541;23;20525;-84
2023/04/05 03:02:30;;;;;;;9.13;6.40;;;;;;;-0.99;62.62;95884.09;6090950;23;20170;-84
2023/04/05 03:04:55;;;;;;;9.20;6.53;;;;;;;-1.01;62.89;95887.59;6065800;23;20174;-83
2023/04/05 03:07:21;;;;;;;8.87;6.37;;;;;;;-1.01;63.54;95885.06;6066386;23;20185;-85
2023/04/05 03:09:46;;;;;;;7.17;5.80;;;;;;;-1.01;63.56;95885.06;6065265;23;20192;-84
2023/04/05 03:12:12;;;;;;;11.00;6.60;;;;;;;-1.02;63.79;95884.22;6065446;23;20157;-84
2023/04/05 03:14:38;;;;;;;9.07;6.00;;;;;;;-1.05;63.69;95883.56;6064986;23;20512;-84
2023/04/05 03:17:03;;;;;;;8.57;6.30;;;;;;;-1.03;63.60;95884.31;6065716;23;20156;-84
2023/04/05 03:19:28;;;;;;;7.17;5.83;;;;;;;-1.06;63.53;95879.31;6065887;23;20184;-84
2023/04/05 03:21:54;;;;;;;7.07;6.00;;;;;;;-1.10;64.03;95885.47;6065842;23;20486;-83
2023/04/05 03:24:20;;;;;;;7.10;5.87;;;;;;;-1.08;64.18;95879.41;6065760;23;20164;-84
2023/04/05 03:26:47;;;;;;;6.87;5.57;;;;;;;-1.11;64.36;95886.38;6065495;23;20674;-85
2023/04/05 03:29:12;;;;;;;8.10;6.47;;;;;;;-1.17;64.61;95875.53;6042245;23;20187;-84
2023/04/05 03:31:37;;;;;;;8.50;6.03;;;;;;;-1.12;64.69;95883.00;6066500;23;20219;-84
2023/04/05 03:34:03;;;;;;;7.67;6.27;;;;;;;-1.10;64.47;95883.75;6090520;23;20165;-83
2023/04/05 03:36:29;;;;;;;10.53;6.80;;;;;;;-1.10;64.70;95878.66;6066355;23;20171;-85
2023/04/05 03:38:55;;;;;;;7.27;5.63;;;;;;;-1.11;65.04;95883.81;6067434;23;20228;-84
2023/04/05 03:41:20;;;;;;;8.33;6.77;;;;;;;-1.13;64.45;95876.25;6067751;23;20161;-85
2023/04/05 03:43:47;;;;;;;8.40;6.27;;;;;;;-1.08;64.55;95879.41;6069416;23;20211;-83
2023/04/05 03:46:12;;;;;;;10.47;6.30;;;;;;;-1.17;64.47;95880.63;6069035;23;20232;-84
2023/04/05 03:48:38;;;;;;;9.27;6.43;;;;;;;-1.15;64.38;95875.47;6093350;23;20204;-84
2023/04/05 03:51:03;;;;;;;9.30;6.33;;;;;;;-1.24;64.29;95863.97;6069882;23;20184;-83
2023/04/05 03:53:28;;;;;;;10.30;7.10;;;;;;;-1.21;64.56;95868.94;6070651;23;20524;-84
2023/04/05 03:55:54;;;;;;;10.63;6.43;;;;;;;-1.24;64.33;95873.34;6070313;23;20163;-84
2023/04/05 03:58:20;;;;;;;9.17;6.70;;;;;;;-1.19;64.41;95868.88;6072777;23;20161;-85
2023/04/05 04:00:46;;;;;;;9.07;6.50;;;;;;;-1.20;64.07;95877.41;6072447;23;20605;-83
2023/04/05 04:03:12;;;;;;;8.33;6.03;;;;;;;-1.24;64.14;95880.97;6073254;23;20586;-85
2023/04/05 04:05:38;;;;;;;8.53;6.33;;;;;;;-1.26;63.96;95875.94;6071955;23;20172;-85
2023/04/05 04:08:06;;;;;;;9.13;6.77;;;;;;;-1.22;64.95;95864.75;6074138;23;20189;-84
2023/04/05 04:10:33;;;;;;;14.03;7.43;;;;;;;-1.23;64.33;95869.91;6075283;23;20215;-83
2023/04/05 04:12:58;;;;;;;8.13;6.30;;;;;;;-1.19;64.00;95866.31;6076013;23;20211;-83
2023/04/05 04:15:24;;;;;;;7.23;6.53;;;;;;;-1.20;64.23;95864.66;6072474;23;20193;-85
2023/04/05 04:17:49;;;;;;;8.77;6.83;;;;;;;-1.20;64.54;95864.66;6072623;23;20160;-84
2023/04/05 04:20:14;;;;;;;10.13;6.83;;;;;;;-1.25;64.27;95869.13;6097630;23;20190;-84
2023/04/05 04:22:40;;;;;;;9.43;6.80;;;;;;;-1.28;64.58;95859.09;6073389;23;20244;-82
2023/04/05 04:25:09;;;;;;;9.30;6.73;;;;;;;-1.30;64.47;95863.44;6073626;23;20606;-83
2023/04/05 04:27:40;;;;;;;9.90;6.83;;;;;;;-1.30;65.11;95860.88;6072464;23;20646;-84
2023/04/05 04:30:09;;;;;;;9.60;6.50;;;;;;;-1.33;65.10;95861.81;6049911;23;20188;-84
2023/04/05 04:32:50;;;;;;;6.87;6.13;;;;;;;-1.35;64.81;95860.25;6096112;23;20168;-85
2023/04/05 04:35:17;;;;;;;8.03;6.43;;;;;;;-1.45;65.16;95865.75;6072700;23;20211;-84
2023/04/05 04:37:54;;;;;;;9.67;6.60;;;;;;;-1.44;65.41;95866.56;6073011;23;20156;-84
2023/04/05 04:40:20;;;;;;;9.00;7.43;;;;;;;-1.50;65.57;95869.41;6075084;23;20190;-84
2023/04/05 04:42:45;;;;;;;10.87;9.23;;;;;;;-1.50;65.19;95866.88;6073908;23;20168;-84
2023/04/05 04:45:20;;;;;;;14.10;11.90;;;;;;;-1.47;65.65;95870.09;6074206;23;20165;-84
2023/04/05 04:47:46;;;;;;;17.30;11.73;;;;;;;-1.50;65.66;95872.78;6098480;23;20175;-84
2023/04/05 04:50:13;;;;;;;13.77;11.67;;;;;;;-1.48;65.39;95871.00;6098168;23;20192;-83
2023/04/05 04:52:39;;;;;;;11.10;9.97;;;;;;;-1.47;64.69;95877.75;6075686;23;20160;-83
2023/04/05 04:55:08;;;;;;;9.37;7.80;;;;;;;-1.47;65.22;95877.75;6076091;23;20630;-84
2023/04/05 04:57:33;;;;;;;9.23;7.20;;;;;;;-1.47;65.02;95879.47;6076272;23;20153;-83
2023/04/05 04:59:58;;;;;;;10.80;7.47;;;;;;;-1.44;64.84;95879.31;6074591;23;20236;-84
2023/04/05 05:02:25;;;;;;;10.60;7.67;;;;;;;-1.35;64.67;95876.38;6075506;23;20212;-84
2023/04/05 05:04:50;;;;;;;10.20;6.87;;;;;;;-1.27;64.88;95881.13;6073905;23;20168;-84
2023/04/05 05:07:16;;;;;;;9.40;6.57;;;;;;;-1.25;64.59;95884.41;6074589;23;20189;-83
2023/04/05 05:09:42;;;;;;;8.57;6.37;;;;;;;-1.25;64.37;95892.06;6096343;23;20184;-84
2023/04/05 05:12:07;;;;;;;10.37;6.70;;;;;;;-1.19;64.62;95887.53;6071405;23;20493;-85
2023/04/05 05:14:32;;;;;;;8.27;6.73;;;;;;;-1.14;64.30;95882.25;6070336;23;20164;-84
2023/04/05 05:16:57;;;;;;;10.87;7.37;;;;;;;-0.98;63.79;95877.25;6072044;23;20152;-85
2023/04/05 05:19:23;;;;;;;7.87;6.27;;;;;;;-0.90;63.34;95882.84;6095050;23;20212;-86
2023/04/05 05:21:49;;;;;;;8.33;6.80;;;;;;;-0.80;63.65;95880.69;6071199;23;20160;-84
2023/04/05 05:24:14;;;;;;;8.00;6.23;;;;;;;-0.72;63.18;95878.63;6071513;23;20190;-85
2023/04/05 05:26:40;;;;;;;9.73;6.63;;;;;;;-0.55;62.66;95881.19;6045478;23;20161;-85
2023/04/05 05:29:05;;;;;;;11.33;7.13;;;;;;;-0.44;62.54;95879.00;6070054;23;20541;-84
2023/04/05 05:31:32;;;;;;;9.27;6.83;;;;;;;-0.35;62.17;95883.66;6068791;23;20198;-84
2023/04/05 05:33:58;;;;;;;8.40;7.07;;;;;;;-0.29;61.59;95878.25;6073410;23;20231;-85
2023/04/05 05:36:24;;;;;;;10.90;7.53;;;;;;;-0.25;61.55;95873.81;6071844;23;20164;-85
2023/04/05 05:38:51;;;;;;;11.17;6.97;;;;;;;-0.12;61.62;95871.50;6073104;23;20189;-85
2023/04/05 05:41:16;;;;;;;8.27;6.50;;;;;;;-0.02;61.08;95883.72;6095311;23;20167;-84
2023/04/05 05:43:42;;;;;;;10.53;8.47;;;;;;;-0.07;61.14;95882.31;6069485;23;20498;-83
2023/04/05 05:46:07;;;;;;;15.30;8.57;;;;;;;0.02;60.89;95878.50;6069527;23;20165;-85
2023/04/05 05:48:32;;;;;;;13.27;9.47;;;;;;;0.10;60.24;95886.59;6069505;23;20177;-83
2023/04/05 05:51:02;;;;;;;9.60;8.27;;;;;;;0.14;60.26;95872.75;6069323;23;20249;-84
2023/04/05 05:53:28;;;;;;;11.30;8.23;;;;;;;0.18;60.21;95882.75;6070073;23;20164;-84
2023/04/05 05:55:53;;;;;;;9.57;8.23;;;;;;;0.26;59.32;95887.47;6068460;23;20168;-84
2023/04/05 05:58:18;;;;;;;11.67;8.50;;;;;;;0.27;59.61;95884.84;6068806;23;20288;-84
2023/04/05 06:00:45;;;;;;;10.07;7.67;;;;;;;0.39;59.30;95880.03;6068951;23;20205;-86
2023/04/05 06:03:12;;;;;;;11.30;7.73;;;;;;;0.37;58.80;95879.28;6071411;23;20225;-83
2023/04/05 06:05:37;;;;;;;8.13;6.57;;;;;;;0.36;58.70;95886.13;6068306;23;20169;-83
2023/04/05 06:08:02;;;;;;;10.67;7.50;;;;;;;0.37;58.99;95884.38;6069438;23;20181;-84
2023/04/05 06:10:28;;;;;;;9.07;6.40;;;;;;;0.44;58.62;95886.56;6068759;23;20181;-83
2023/04/05 06:12:54;;;;;;;8.70;6.80;;;;;;;0.46;58.21;95889.84;6068295;23;20161;-85
2023/04/05 06:15:19;;;;;;;8.93;6.77;;;;;;;0.51;58.49;95889.59;6066597;23;20603;-83
2023/04/05 06:17:45;;;;;;;11.27;6.23;;;;;;;0.57;58.46;95890.13;6069277;23;20164;-84
2023/04/05 06:20:10;;;;;;;7.30;6.20;;;;;;;0.67;57.68;95889.66;6070448;23;20694;-83
2023/04/05 06:22:39;;;;;;;8.40;6.23;;;;;;;0.90;57.02;95896.97;6067598;23;20164;-84
2023/04/05 06:25:04;;;;;;;6.90;5.97;;;;;;;0.94;56.21;95885.66;6066408;23;20157;-82
2023/04/05 06:27:30;;;;;;;9.70;6.23;;;;;;;1.00;55.79;95890.44;6089724;23;20195;-83
2023/04/05 06:29:58;;;;;;;8.57;6.20;;;;;;;1.16;55.00;95895.59;6090087;23;20643;-85
2023/04/05 06:32:23;;;;;;;7.73;5.57;;;;;;;1.16;54.63;95894.75;6043269;23;20240;-84
2023/04/05 06:34:52;;;;;;;7.63;5.07;;;;;;;1.35;53.78;95903.91;6066038;23;20157;-84
2023/04/05 06:37:18;;;;;;;7.80;5.20;;;;;;;1.50;52.94;95896.28;6067420;23;20213;-82
2023/04/05 06:39:43;;;;;;;6.90;4.73;;;;;;;1.63;52.54;95895.53;6067281;23;20181;-84
2023/04/05 06:42:08;;;;;;;7.93;5.37;;;;;;;1.63;51.47;95890.44;6066025;23;20178;-84
2023/04/05 06:44:33;;;;;;;5.90;5.30;;;;;;;1.83;51.48;95899.56;6069152;23;20611;-83
2023/04/05 06:46:59;;;;;;;6.57;4.93;;;;;;;1.91;51.47;95894.00;6067825;23;20184;-84
2023/04/05 06:49:24;;;;;;;11.40;5.67;;;;;;;1.98;50.68;95893.56;6067644;23;20197;-82
2023/04/05 06:51:50;;;;;;;8.00;5.13;;;;;;;2.03;49.12;95900.16;6068880;23;20150;-84
2023/04/05 06:54:15;;;;;;;8.20;5.47;;;;;;;2.06;49.86;95900.00;6068776;23;20172;-84
2023/04/05 06:56:40;;;;;;;8.03;6.00;;;;;;;2.12;50.83;95902.19;6071172;23;20614;-84
2023/04/05 06:59:06;;;;;;;9.13;6.17;;;;;;;2.27;51.20;95904.72;6092313;23;20189;-83
2023/04/05 07:01:31;;;;;;;6.83;5.40;;;;;;;2.33;50.81;95902.72;6069547;23;20161;-84
2023/04/05 07:03:56;;;;;;;8.40;5.40;;;;;;;2.53;50.58;95894.69;6069048;23;20161;-83
2023/04/05 07:06:22;;;;;;;9.63;5.40;;;;;;;2.44;50.94;95896.03;6068407;23;20216;-81
2023/04/05 07:08:48;;;;;;;10.20;6.60;;;;;;;2.40;51.85;95899.72;6094178;23;20257;-84
2023/04/05 07:11:14;;;;;;;7.40;5.70;;;;;;;2.51;51.33;95899.09;6070238;23;20185;-84
2023/04/05 07:13:39;;;;;;;11.33;6.10;;;;;;;2.58;51.03;95900.38;6070766;23;20160;-83
2023/04/05 07:16:05;;;;;;;8.53;6.33;;;;;;;2.50;50.78;95898.25;6070426;23;20263;-84
2023/04/05 07:18:30;;;;;;;9.50;6.53;;;;;;;2.46;51.29;95898.50;6070847;23;20233;-83
2023/04/05 07:21:00;;;;;;;7.13;5.67;;;;;;;2.49;50.48;95895.78;6071130;23;20160;-84
2023/04/05 07:23:26;;;;;;;7.33;5.40;;;;;;;2.66;50.06;95907.63;6099206;23;20610;-84
2023/04/05 07:25:52;;;;;;;6.67;5.50;;;;;;;2.69;50.29;95902.28;6081300;23;20232;-84
2023/04/05 07:28:17;;;;;;;9.57;5.73;;;;;;;2.69;48.96;95902.28;6078395;23;20185;-84
2023/04/05 07:30:43;;;;;;;9.20;5.90;;;;;;;2.64;48.57;95900.00;6071077;23;20177;-82
2023/04/05 07:33:08;;;;;;;7.27;5.43;;;;;;;2.67;47.94;95904.97;6069519;23;20477;-84
2023/04/05 07:35:33;;;;;;;7.30;5.43;;;;;;;2.87;48.15;95897.81;6069364;23;20224;-83
2023/04/05 07:37:58;;;;;;;8.27;5.63;;;;;;;2.78;46.67;95896.63;6093872;23;20165;-82
2023/04/05 07:40:24;;;;;;;10.07;6.83;;;;;;;2.80;47.13;95895.59;6066482;23;20203;-84
2023/04/05 07:42:49;;;;;;;10.53;6.37;;;;;;;3.00;48.15;95901.28;6091928;23;20161;-84
2023/04/05 07:45:15;;;;;;;12.43;6.70;;;;;;;2.91;47.13;95910.34;6067492;23;20615;-83
2023/04/05 07:47:40;;;;;;;13.80;7.93;;;;;;;3.02;47.28;95912.28;6092340;23;20169;-84
2023/04/05 07:50:06;;;;;;;9.40;6.43;;;;;;;3.25;46.75;95909.13;6092233;23;20189;-83
2023/04/05 07:52:31;;;;;;;7.80;6.03;;;;;;;3.17;45.53;95908.75;6071216;23;20248;-83
2023/04/05 07:54:56;;;;;;;7.37;5.30;;;;;;;3.35;45.13;95909.38;6070699;23;20205;-83
2023/04/05 07:57:22;;;;;;;6.93;5.37;;;;;;;3.42;45.17;95903.78;6074129;23;20158;-85
2023/04/05 07:59:49;;;;;;;6.70;5.20;;;;;;;3.46;45.22;95907.00;6072506;23;20245;-83
2023/04/05 08:02:15;;;;;;;7.37;5.53;;;;;;;3.57;44.54;95912.28;6071585;23;20288;-85
2023/04/05 08:04:40;;;;;;;5.00;4.50;;;;;;;3.62;44.05;95914.53;6070677;23;20212;-84
2023/04/05 08:07:06;;;;;;;6.33;5.03;;;;;;;3.75;43.62;95918.00;6073426;23;20192;-84
2023/04/05 08:09:31;;;;;;;6.27;4.63;;;;;;;3.97;44.59;95914.88;6077536;23;20185;-86
2023/04/05 08:11:56;;;;;;;8.10;5.07;;;;;;;3.76;43.85;95916.25;6093151;23;20348;-84
2023/04/05 08:14:22;;;;;;;5.87;5.10;;;;;;;3.90;44.20;95916.22;6094718;23;20222;-84
2023/04/05 08:16:49;;;;;;;5.70;4.40;;;;;;;4.13;42.19;95920.69;6094362;23;20157;-84
2023/04/05 08:19:15;;;;;;;5.70;4.63;;;;;;;4.32;42.68;95914.34;6118921;23;20197;-84
2023/04/05 08:21:40;;;;;;;7.10;4.60;;;;;;;4.42;42.70;95918.81;6118509;23;20153;-83
2023/04/05 08:24:05;;;;;;;7.77;5.07;;;;;;;4.13;42.27;95918.09;6083694;23;20254;-85
2023/04/05 08:26:30;;;;;;;5.03;4.27;;;;;;;4.24;41.04;95919.97;6091284;23;20200;-85
2023/04/05 08:28:56;;;;;;;8.17;4.97;;;;;;;4.29;40.94;95914.53;6067081;23;20192;-84
2023/04/05 08:31:21;;;;;;;5.00;4.43;;;;;;;4.28;41.31;95913.72;6068061;23;20180;-85
2023/04/05 08:33:46;;;;;;;6.23;4.40;;;;;;;4.53;41.42;95920.66;6068031;23;20509;-85
2023/04/05 08:36:12;;;;;;;7.27;4.80;;;;;;;4.48;41.54;95920.94;6067232;23;20174;-84
2023/04/05 08:38:37;;;;;;;5.20;4.50;;;;;;;4.44;40.16;95918.69;6090692;23;20597;-85
2023/04/05 08:41:22;;;;;;;6.97;4.13;;;;;;;4.40;39.20;95919.81;6063985;23;20231;-85
2023/04/05 08:44:01;;;;;;;8.90;5.10;;;;;;;4.29;40.92;95910.22;6040886;23;20246;-83
2023/04/05 08:46:30;;;;;;;7.30;4.40;;;;;;;4.46;40.77;95914.25;6065515;23;20205;-85
2023/04/05 08:48:57;;;;;;;9.30;5.83;;;;;;;4.62;41.67;95908.94;6065631;23;20661;-85
2023/04/05 08:51:23;;;;;;;5.80;5.13;;;;;;;4.49;40.90;95916.63;6042321;23;20141;-85
2023/04/05 08:53:48;;;;;;;6.47;4.87;;;;;;;4.50;41.08;95907.97;6041746;23;20165;-84
2023/04/05 08:56:26;;;;;;;8.10;5.47;;;;;;;4.59;42.40;95917.66;6041181;23;20168;-83
2023/04/05 08:59:05;;;;;;;6.47;4.83;;;;;;;4.89;39.96;95911.41;6040892;23;20182;-84
2023/04/05 09:01:31;;;;;;;6.93;5.13;;;;;;;5.21;41.60;95919.47;6041513;23;20157;-85
2023/04/05 09:04:00;;;;;;;7.00;4.83;;;;;;;5.20;40.67;95910.09;6041898;23;20163;-85
2023/04/05 09:06:28;;;;;;;6.53;4.87;;;;;;;5.32;41.41;95906.69;6042187;23;20219;-85
2023/04/05 09:08:56;;;;;;;5.87;5.17;;;;;;;5.50;42.31;95915.72;6042767;23;20235;-86
2023/04/05 09:11:21;;;;;;;8.43;4.93;;;;;;;5.50;41.40;95914.91;6041793;23;20167;-86
2023/04/05 09:13:47;;;;;;;7.17;5.27;;;;;;;5.51;41.53;95922.50;6041847;23;20175;-84
2023/04/05 09:16:14;;;;;;;8.17;5.90;;;;;;;5.63;41.25;95916.47;6042248;23;20614;-86
2023/04/05 09:18:40;;;;;;;7.83;5.97;;;;;;;5.78;41.46;95918.91;6044047;23;20227;-85
2023/04/05 09:21:05;;;;;;;6.80;5.43;;;;;;;5.42;41.36;95918.00;6019916;23;20834;-85
2023/04/05 09:23:36;;;;;;;7.50;5.80;;;;;;;5.06;40.44;95921.38;6044211;23;20156;-85
2023/04/05 09:26:18;;;;;;;8.23;5.73;;;;;;;5.38;42.20;95925.09;6042560;23;20163;-83
2023/04/05 09:28:43;;;;;;;11.27;5.83;;;;;;;5.61;42.01;95926.09;6065999;23;20209;-85
2023/04/05 09:31:08;;;;;;;8.47;6.17;;;;;;;5.90;41.79;95924.03;6043081;23;20625;-84
2023/04/05 09:33:35;;;;;;;11.33;5.97;;;;;;;5.84;41.16;95921.06;6043355;23;20215;-85
2023/04/05 09:36:01;;;;;;;6.63;5.53;;;;;;;5.91;41.59;95919.69;6069158;23;20164;-85
2023/04/05 09:38:44;;;;;;;6.27;5.30;;;;;;;5.59;39.37;95929.72;6042336;23;20195;-85
2023/04/05 09:41:10;;;;;;;8.43;5.43;;;;;;;5.56;39.55;95919.59;6018946;23;20153;-84
2023/04/05 09:43:40;;;;;;;6.37;5.37;;;;;;;5.36;39.67;95923.56;6044139;23;20192;-86
2023/04/05 09:46:05;;;;;;;8.73;5.30;;;;;;;5.40;40.39;95927.59;6066852;23;20156;-84
2023/04/05 09:48:47;;;;;;;6.63;5.60;;;;;;;5.61;38.96;95933.00;6043049;23;20181;-85
2023/04/05 09:51:14;;;;;;;6.53;5.37;;;;;;;5.64;39.27;95919.88;6043907;23;20606;-85
2023/04/05 09:54:15;;;;;;;6.60;5.90;;;;;;;5.86;38.86;95916.63;6044256;23;20597;-84
2023/04/05 09:56:52;;;;;;;7.27;5.60;;;;;;;5.91;39.22;95920.53;5953348;24;20175;-85
2023/04/05 09:59:19;;;;;;;10.77;5.73;;;;;;;6.04;40.13;95909.34;5952674;24;21090;-85
2023/04/05 10:01:50;;;;;;;6.90;6.00;;;;;;;5.94;39.79;95910.00;5953482;24;20308;-87
2023/04/05 10:04:18;;;;;;;9.80;5.53;;;;;;;6.07;39.03;95903.97;5930165;24;20162;-87
2023/04/05 10:06:43;;;;;;;7.77;5.17;;;;;;;6.27;40.76;95905.91;5953039;24;20171;-85
2023/04/05 10:09:10;;;;;;;7.63;5.57;;;;;;;6.32;39.74;95908.97;5929518;24;20184;-85
2023/04/05 10:11:36;;;;;;;6.70;5.77;;;;;;;6.24;38.83;95914.69;5929895;24;20212;-85
2023/04/05 10:14:06;;;;;;;8.83;6.17;;;;;;;6.17;40.42;95910.09;5953272;24;20163;-84
2023/04/05 10:16:35;;;;;;;12.50;6.30;;;;;;;6.42;39.53;95904.78;5929264;24;20247;-84
2023/04/05 10:19:04;;;;;;;9.93;6.33;;;;;;;6.44;40.98;95904.66;5952508;24;20262;-85
2023/04/05 10:21:32;;;;;;;7.87;6.43;;;;;;;5.88;41.21;95894.13;5954663;24;20172;-85
2023/04/05 10:24:13;;;;;;;7.87;5.80;;;;;;;6.36;39.41;95904.41;5933421;24;20175;-86
2023/04/05 10:26:50;;;;;;;7.63;5.87;;;;;;;6.48;37.85;95898.34;5954013;24;20228;-86
2023/04/05 10:29:25;;;;;;;5.60;4.90;;;;;;;5.87;38.39;95908.78;5930663;24;20241;-85
2023/04/05 10:31:54;;;;;;;8.03;5.77;;;;;;;6.32;38.67;95890.09;6090888;23;20203;-84
2023/04/05 10:34:53;;;;;;;6.73;5.70;;;;;;;6.01;38.14;95894.94;6043144;23;20599;-85
2023/04/05 10:37:48;;;;;;;7.70;6.07;;;;;;;5.57;38.22;95893.75;6062002;23;20157;-84
2023/04/05 10:40:18;;;;;;;7.47;5.17;;;;;;;5.47;38.81;95897.06;6026431;23;20194;-84
2023/04/05 10:42:45;;;;;;;7.30;5.50;;;;;;;5.67;38.33;95892.16;6019639;23;20655;-84
2023/04/05 10:45:18;;;;;;;7.67;5.53;;;;;;;6.12;38.48;95894.16;6043303;23;20149;-85
2023/04/05 10:47:54;;;;;;;6.77;5.33;;;;;;;6.21;38.09;95893.47;6044747;23;20259;-84
2023/04/05 10:50:24;;;;;;;7.77;5.53;;;;;;;5.90;38.45;95887.94;6056888;23;20200;-84
2023/04/05 10:52:51;;;;;;;9.87;6.00;;;;;;;6.07;37.43;95888.50;6067287;23;20189;-84
2023/04/05 10:55:16;;;;;;;7.97;5.33;;;;;;;6.11;38.35;95885.59;6090697;23;20310;-84
2023/04/05 10:57:43;;;;;;;7.70;5.40;;;;;;;6.47;38.69;95884.63;6067424;23;20594;-83
2023/04/05 11:00:10;;;;;;;7.30;5.50;;;;;;;6.64;37.59;95883.38;6091344;23;20181;-85
2023/04/05 11:02:35;;;;;;;8.83;5.40;;;;;;;6.82;36.92;95883.75;6067815;23;20215;-84
2023/04/05 11:05:04;;;;;;;7.33;5.30;;;;;;;6.95;35.28;95891.38;6066919;23;20504;-84
2023/04/05 11:07:43;;;;;;;6.07;5.23;;;;;;;6.65;34.25;95889.34;6066750;23;20524;-84
2023/04/05 11:10:16;;;;;;;8.13;5.63;;;;;;;6.76;35.75;95884.19;6067062;23;20820;-83
2023/04/05 11:12:48;;;;;;;7.07;5.27;;;;;;;6.76;36.64;95881.63;6067696;23;20157;-84
2023/04/05 11:15:26;;;;;;;7.23;5.97;;;;;;;6.87;36.55;95880.81;6066907;23;20246;-84
2023/04/05 11:18:08;;;;;;;5.60;4.90;;;;;;;6.97;37.38;95879.97;6065048;23;20604;-83
2023/04/05 11:20:44;;;;;;;6.90;5.53;;;;;;;6.89;35.30;95876.34;6066554;23;20275;-83
2023/04/05 11:23:10;;;;;;;8.00;5.30;;;;;;;6.49;35.81;95877.59;6091341;23;20235;-84
2023/04/05 11:25:40;;;;;;;5.30;4.80;;;;;;;6.63;36.19;95870.59;6067027;23;20497;-83
2023/04/05 11:28:05;;;;;;;5.80;5.20;;;;;;;7.09;35.26;95868.72;6066615;23;20181;-84
2023/04/05 11:30:46;;;;;;;6.60;4.90;;;;;;;7.51;36.37;95868.91;6091171;23;20210;-83
2023/04/05 11:33:35;;;;;;;6.50;5.30;;;;;;;7.18;34.74;95866.38;6068990;23;20149;-83
2023/04/05 11:36:01;;;;;;;8.53;4.90;;;;;;;7.47;33.78;95861.50;6066466;23;20149;-84
2023/04/05 11:38:27;;;;;;;7.30;5.30;;;;;;;7.48;33.11;95858.78;6090257;23;20301;-84